Flight Track Log - Related Links

Times and Time Zones

All times are in EDT time to prevent confusion due to time zone crossing. See the UAL653 flight status page for this flight to view local times or setup timezone preferences in your user account.

Time Position Orientation Groundspeed Altitude Reporting Facility
EDT Latitude Longitude Course Direction KTS MPH feet Rate Location/Type
Fri 04:47:58 PM 33.9289 -118.4486 55° Northeast 184 212 37,000  Level Los Angeles Center
Fri 04:49:00 PM 33.9064 -118.5214 250° West 236 272 4,200 -14,661 Descending Los Angeles Center
Fri 04:50:00 PM 34.1261 -118.0812 59° Northeast  Level FlightAware Approximate
Fri 04:50:02 PM 33.8386 -118.5450 196° South 274 315 6,700  Level Los Angeles Center
Fri 04:51:00 PM 34.1913 -117.9508 59° Northeast  Level FlightAware Approximate
Fri 04:51:04 PM 33.8269 -118.4633 100° East 290 334 8,800  Level Los Angeles Center
Fri 04:52:00 PM 34.2614 -117.8246 51° Northeast  Level FlightAware Approximate
Fri 04:52:06 PM 33.9008 -118.4278 22° Northeast 294 338 11,100  Level Los Angeles Center
Fri 04:53:00 PM 34.3301 -117.7015 55° Northeast  Level FlightAware Approximate
Fri 04:53:08 PM 33.9756 -118.3883 24° Northeast 324 373 12,900  Level Los Angeles Center
Fri 04:54:10 PM 34.0203 -118.2800 63° Northeast 359 413 14,600 1,403 Climbing Los Angeles Center
Fri 04:55:12 PM 34.0803 -118.1719 56° Northeast 383 441 15,800 1,536 Climbing Los Angeles Center
Fri 04:56:15 PM 34.1603 -118.0281 56° Northeast 426 490 17,800 1,728 Climbing Los Angeles Center
Fri 04:57:17 PM 34.2297 -117.9047 56° Northeast 440 506 19,400 1,415 Climbing Los Angeles Center
Fri 04:58:18 PM 34.2869 -117.8022 56° Northeast 452 520 20,700 1,403 Climbing Los Angeles Center
Fri 04:59:21 PM 34.3758 -117.6450 56° Northeast 470 541 22,300 1,488 Climbing Los Angeles Center
Fri 05:00:23 PM 34.4550 -117.4994 57° Northeast 488 562 23,800 1,258 Climbing Los Angeles Center
Fri 05:02:00 PM 34.5576 -117.2848 59° Northeast  Level FlightAware Approximate
Fri 05:02:27 PM 34.6100 -117.2178 59° Northeast 508 585 26,200  Level Los Angeles Center
Fri 05:03:29 PM 34.7050 -117.0422 57° Northeast 521 600 27,700 1,548 Climbing Los Angeles Center
Fri 05:04:31 PM 34.7867 -116.8961 56° Northeast 523 602 29,400 1,452 Climbing Los Angeles Center
Fri 05:05:33 PM 34.8656 -116.7503 57° Northeast 519 597 30,700 1,210 Climbing Los Angeles Center
Fri 05:06:35 PM 34.9458 -116.6031 56° Northeast 522 601 31,900 1,152 Climbing Los Angeles Center
Fri 05:07:38 PM 35.0411 -116.4717 48° Northeast 521 600 33,100 1,059 Climbing Los Angeles Center
Fri 05:08:51 PM 35.1611 -116.3236 45° Northeast 516 594 34,300 1,059 Climbing Los Angeles Center
Fri 05:09:54 PM 35.2811 -116.1736 46° Northeast 513 590 35,500 1,008 Climbing Los Angeles Center
Fri 05:10:56 PM 35.3789 -116.0486 46° Northeast 513 590 36,400 662 Climbing Los Angeles Center
Fri 05:12:10 PM 35.4797 -115.9247 45° Northeast 513 590 37,000 263 Climbing Los Angeles Center
Fri 05:13:13 PM 35.6036 -115.7697 45° Northeast 507 583 37,000  Level Los Angeles Center
Fri 05:14:14 PM 35.6822 -115.6681 46° Northeast 512 589 37,000  Level Los Angeles Center
Fri 05:15:17 PM 35.7672 -115.4422 65° Northeast 529 609 37,000  Level Los Angeles Center
Fri 05:16:19 PM 35.8000 -115.2644 77° East 537 618 37,000  Level Los Angeles Center
Fri 05:17:21 PM 35.8306 -115.0908 78° East 526 605 37,000  Level Los Angeles Center
Fri 05:18:23 PM 35.8714 -114.9153 74° East 533 613 37,000  Level Los Angeles Center
Fri 05:19:25 PM 35.9114 -114.7411 74° East 532 612 37,000  Level Los Angeles Center
Fri 05:20:27 PM 35.9439 -114.5997 74° East 535 616 37,000  Level Los Angeles Center
Fri 05:21:29 PM 36.0000 -114.3533 74° East 535 616 37,000  Level Los Angeles Center
Fri 05:22:32 PM 36.0436 -114.1664 74° East 536 617 37,000  Level Los Angeles Center
Fri 05:23:34 PM 36.0814 -114.0014 74° East 535 616 37,000  Level Los Angeles Center
Fri 05:24:36 PM 36.1217 -113.8253 74° East 535 616 37,000  Level Los Angeles Center
Fri 05:25:38 PM 36.1608 -113.6497 75° East 533 613 37,000  Level Los Angeles Center
Fri 05:26:40 PM 36.2058 -113.4381 75° East 531 611 37,000  Level Los Angeles Center
Fri 05:27:42 PM 36.2450 -113.2642 74° East 528 608 37,000  Level Los Angeles Center
Fri 05:28:44 PM 36.2864 -113.0758 75° East 527 606 37,000  Level Los Angeles Center
Fri 05:29:46 PM 36.3244 -112.9011 75° East 526 605 37,000  Level Los Angeles Center
Fri 05:30:48 PM 36.3617 -112.7281 75° East 525 604 37,000  Level Los Angeles Center
Fri 05:31:50 PM 36.3983 -112.5547 75° East 523 602 37,000  Level Los Angeles Center
Fri 05:32:53 PM 36.4350 -112.3811 75° East 523 602 37,000  Level Los Angeles Center
Fri 05:33:55 PM 36.4792 -112.1736 75° East 521 600 37,000  Level Los Angeles Center
Fri 05:34:57 PM 36.5147 -111.9992 76° East 522 601 37,000  Level Los Angeles Center
Fri 05:35:51 PM 36.5442 -111.8606 75° East 524 603 37,000  Level Denver Center
Fri 05:36:54 PM 36.5794 -111.6864 76° East 524 603 37,000  Level Denver Center
Fri 05:37:56 PM 36.6228 -111.4756 76° East 526 605 37,000  Level Denver Center
Fri 05:38:58 PM 36.6572 -111.3003 76° East 524 603 37,000  Level Denver Center
Fri 05:40:00 PM 36.6925 -111.1225 76° East 528 608 37,000  Level Denver Center
Fri 05:41:02 PM 36.7278 -110.9453 76° East 530 610 37,000  Level Denver Center
Fri 05:42:04 PM 36.7619 -110.7681 76° East 528 608 37,000  Level Denver Center
Fri 05:43:18 PM 36.8036 -110.5539 76° East 531 611 37,000  Level Denver Center
Fri 05:44:20 PM 36.8447 -110.3417 76° East 528 608 37,000  Level Denver Center
Fri 05:45:23 PM 36.8800 -110.1525 77° East 528 608 37,000  Level Denver Center
Fri 05:46:25 PM 36.9122 -109.9811 77° East 528 608 37,000  Level Denver Center
Fri 05:47:27 PM 36.9486 -109.7817 77° East 527 606 37,000  Level Denver Center
Fri 05:48:29 PM 36.9806 -109.6097 77° East 528 608 37,000  Level Denver Center
Fri 05:49:43 PM 37.0181 -109.4089 77° East 530 610 37,000  Level Denver Center
Fri 05:50:45 PM 37.0542 -109.2089 77° East 526 605 37,000  Level Denver Center
Fri 05:51:47 PM 37.0914 -109.0081 77° East 526 605 37,000  Level Denver Center
Fri 05:53:01 PM 37.1217 -108.8356 78° East 528 608 37,000  Level Denver Center
Fri 05:54:04 PM 37.1631 -108.6025 77° East 534 615 37,000  Level Denver Center
Fri 05:55:06 PM 37.1933 -108.4272 78° East 534 615 37,000  Level Denver Center
Fri 05:56:08 PM 37.2281 -108.2261 78° East 529 609 37,000  Level Denver Center
Fri 05:57:10 PM 37.2575 -108.0486 78° East 538 619 37,000  Level Denver Center
Fri 05:58:24 PM 37.2931 -107.8461 77° East 533 613 37,000  Level Denver Center
Fri 05:59:26 PM 37.3267 -107.6403 78° East 536 617 37,000  Level Denver Center
Fri 06:00:28 PM 37.3606 -107.4350 78° East 538 619 37,000  Level Denver Center
Fri 06:01:30 PM 37.3858 -107.2889 78° East 536 617 37,000  Level Denver Center
Fri 06:02:32 PM 37.4228 -107.0522 79° East 538 619 37,000  Level Denver Center
Fri 06:03:34 PM 37.4514 -106.8781 78° East 533 613 37,000  Level Denver Center
Fri 06:04:36 PM 37.4833 -106.6736 79° East 532 612 37,000  Level Denver Center
Fri 06:05:39 PM 37.5097 -106.4989 79° East 531 611 37,000  Level Denver Center
Fri 06:06:41 PM 37.5333 -106.2953 82° East 525 604 37,000  Level Denver Center
Fri 06:07:43 PM 37.5339 -106.1164 90° East 530 610 37,000  Level Denver Center
Fri 06:08:45 PM 37.5453 -105.9083 86° East 533 613 37,000  Level Denver Center
Fri 06:09:47 PM 37.5581 -105.7253 85° East 531 611 37,000  Level Denver Center
Fri 06:10:49 PM 37.5875 -105.5503 78° East 531 611 37,000  Level Denver Center
Fri 06:11:51 PM 37.6269 -105.3503 76° East 528 608 37,000  Level Denver Center
Fri 06:12:53 PM 37.6597 -105.1797 76° East 525 604 37,000  Level Denver Center
Fri 06:13:55 PM 37.6981 -104.9806 76° East 522 601 37,000  Level Denver Center
Fri 06:14:57 PM 37.7292 -104.8092 77° East 522 601 37,000  Level Denver Center
Fri 06:15:59 PM 37.7661 -104.6083 77° East 523 602 37,000  Level Denver Center
Fri 06:17:01 PM 37.8008 -104.4361 76° East 527 606 37,000  Level Denver Center
Fri 06:18:03 PM 37.8244 -104.2608 80° East 525 604 37,000  Level Denver Center
Fri 06:19:05 PM 37.8525 -104.0564 80° East 522 601 37,000  Level Denver Center
Fri 06:20:07 PM 37.8825 -103.8844 77° East 518 596 37,000  Level Denver Center
Fri 06:21:10 PM 37.9103 -103.6850 80° East 513 590 37,000  Level Denver Center
Fri 06:22:12 PM 37.9317 -103.5150 81° East 509 586 37,000  Level Denver Center
Fri 06:23:14 PM 37.9558 -103.3222 81° East 497 572 37,000  Level Denver Center
Fri 06:24:16 PM 37.9778 -103.1614 80° East 485 558 37,000  Level Denver Center
Fri 06:25:18 PM 37.9964 -102.9997 82° East 484 557 37,000  Level Denver Center
Fri 06:26:20 PM 38.0192 -102.8142 81° East 479 551 37,000  Level Denver Center
Fri 06:27:22 PM 38.0400 -102.6475 81° East 476 548 37,000  Level Denver Center
Fri 06:28:25 PM 38.0611 -102.4628 82° East 474 545 37,000  Level Denver Center
Fri 06:29:26 PM 38.0794 -102.3047 82° East 473 544 37,000  Level Denver Center
Fri 06:30:28 PM 38.0983 -102.1472 81° East 474 545 37,000  Level Denver Center
Fri 06:31:30 PM 38.1203 -101.9611 81° East 477 549 37,000  Level Denver Center
Fri 06:32:23 PM 38.1350 -101.8272 82° East 480 552 37,000  Level Kansas City Center
Fri 06:33:25 PM 38.1569 -101.6381 82° East 483 556 37,000  Level Kansas City Center
Fri 06:34:28 PM 38.1772 -101.4722 81° East 490 564 37,000  Level Kansas City Center
Fri 06:35:30 PM 38.1981 -101.2800 82° East 491 565 37,000  Level Kansas City Center
Fri 06:36:32 PM 38.2153 -101.1167 82° East 488 562 37,000  Level Kansas City Center
Fri 06:37:34 PM 38.2358 -100.9258 82° East 484 557 37,000  Level Kansas City Center
Fri 06:38:36 PM 38.2525 -100.7614 83° East 486 559 37,000  Level Kansas City Center
Fri 06:39:38 PM 38.2711 -100.5717 83° East 484 557 37,000  Level Kansas City Center
Fri 06:40:40 PM 38.2872 -100.4067 83° East 486 559 37,000  Level Kansas City Center
Fri 06:41:42 PM 38.3031 -100.2425 83° East 486 559 37,000  Level Kansas City Center
Fri 06:42:44 PM 38.3228 -100.0511 82° East 487 560 37,000  Level Kansas City Center
Fri 06:43:46 PM 38.3389 -99.8894 83° East 483 556 37,000  Level Kansas City Center
Fri 06:44:48 PM 38.3564 -99.6967 83° East 487 560 37,000  Level Kansas City Center
Fri 06:45:50 PM 38.3725 -99.5342 83° East 484 557 37,000  Level Kansas City Center
Fri 06:46:52 PM 38.3867 -99.3728 84° East 485 558 37,000  Level Kansas City Center
Fri 06:47:54 PM 38.4047 -99.1667 84° East 487 560 37,000  Level Kansas City Center
Fri 06:48:56 PM 38.4203 -98.9953 83° East 486 559 37,000  Level Kansas City Center
Fri 06:49:58 PM 38.4361 -98.8225 83° East 489 563 37,000  Level Kansas City Center
Fri 06:51:00 PM 38.4511 -98.6492 84° East 491 565 37,000  Level Kansas City Center
Fri 06:52:02 PM 38.4661 -98.4756 84° East 490 564 37,000  Level Kansas City Center
Fri 06:53:04 PM 38.4808 -98.3025 84° East 488 562 37,000  Level Kansas City Center
Fri 06:54:06 PM 38.4964 -98.1283 83° East 490 564 37,000  Level Kansas City Center
Fri 06:55:08 PM 38.5131 -97.9194 84° East 490 564 37,000  Level Kansas City Center
Fri 06:56:10 PM 38.5264 -97.7444 84° East 491 565 37,000  Level Kansas City Center
Fri 06:57:12 PM 38.5392 -97.5700 85° East 492 566 37,000  Level Kansas City Center
Fri 06:58:14 PM 38.5531 -97.3942 84° East 494 568 37,000  Level Kansas City Center
Fri 06:59:16 PM 38.5661 -97.2200 84° East 493 567 37,000  Level Kansas City Center
Fri 07:00:18 PM 38.5792 -97.0439 85° East 496 571 37,000  Level Kansas City Center
Fri 07:01:20 PM 38.5911 -96.8692 85° East 494 568 37,000  Level Kansas City Center
Fri 07:02:22 PM 38.6053 -96.6608 85° East 492 566 37,000  Level Kansas City Center
Fri 07:03:24 PM 38.6164 -96.4944 85° East 491 565 37,000  Level Kansas City Center
Fri 07:04:27 PM 38.6286 -96.3003 85° East 491 565 37,000  Level Kansas City Center
Fri 07:05:29 PM 38.6392 -96.1350 85° East 488 562 37,000  Level Kansas City Center
Fri 07:06:31 PM 38.6519 -95.9408 85° East 492 566 37,000  Level Kansas City Center
Fri 07:07:33 PM 38.6617 -95.7744 86° East 492 566 37,000  Level Kansas City Center
Fri 07:08:35 PM 38.6717 -95.6072 86° East 494 568 37,000  Level Kansas City Center
Fri 07:09:37 PM 38.6836 -95.4108 85° East 498 573 37,000  Level Kansas City Center
Fri 07:10:39 PM 38.6933 -95.2439 86° East 496 571 37,000  Level Kansas City Center
Fri 07:11:41 PM 38.7031 -95.0481 86° East 496 571 37,000  Level Kansas City Center
Fri 07:12:43 PM 38.7133 -94.8833 85° East 490 564 37,000  Level Kansas City Center
Fri 07:13:45 PM 38.7236 -94.6908 86° East 487 560 37,000  Level Kansas City Center
Fri 07:14:47 PM 38.7319 -94.5275 86° East 484 557 37,000  Level Kansas City Center
Fri 07:15:49 PM 38.7406 -94.3364 87° East 483 556 37,000  Level Kansas City Center
Fri 07:16:51 PM 38.7483 -94.1753 86° East 477 549 37,000  Level Kansas City Center
Fri 07:17:53 PM 38.7564 -93.9861 87° East 476 548 37,000  Level Kansas City Center
Fri 07:18:55 PM 38.7628 -93.8269 87° East 471 542 37,000  Level Kansas City Center
Fri 07:19:57 PM 38.7725 -93.6428 86° East 465 535 37,000  Level Kansas City Center
Fri 07:20:59 PM 38.7786 -93.4806 87° East 460 529 37,000  Level Kansas City Center
Fri 07:22:01 PM 38.7867 -93.3169 86° East 458 527 37,000  Level Kansas City Center
Fri 07:23:03 PM 38.7922 -93.1550 87° East 455 524 37,000  Level Kansas City Center
Fri 07:24:05 PM 38.7983 -92.9933 87° East 452 520 37,000  Level Kansas City Center
Fri 07:25:07 PM 38.8044 -92.8014 88° East 449 517 37,000  Level Kansas City Center
Fri 07:26:09 PM 38.8100 -92.6386 87° East 452 520 37,000 145 Level Kansas City Center
Fri 07:27:11 PM 38.8150 -92.4756 88° East 454 522 37,300 968 Climbing Kansas City Center
Fri 07:28:13 PM 38.8197 -92.3178 88° East 451 519 39,000 823 Climbing Kansas City Center
Fri 07:29:15 PM 38.8239 -92.1717 88° East 435 501 39,000  Level Kansas City Center
Fri 07:30:17 PM 38.8286 -92.0269 88° East 421 484 39,000  Level Kansas City Center
Fri 07:31:20 PM 38.8333 -91.8769 88° East 417 480 39,000  Level Kansas City Center
Fri 07:32:22 PM 38.8369 -91.7033 88° East 418 481 39,000  Level Kansas City Center
Fri 07:33:24 PM 38.8389 -91.5542 89° East 419 482 39,000  Level Kansas City Center
Fri 07:34:26 PM 38.8428 -91.4039 88° East 421 484 39,000  Level Kansas City Center
Fri 07:35:28 PM 38.8450 -91.2533 89° East 423 487 39,000  Level Kansas City Center
Fri 07:36:30 PM 38.8483 -91.1028 88° East 423 487 39,000  Level Kansas City Center
Fri 07:37:32 PM 38.8528 -90.9531 88° East 422 486 39,000  Level Kansas City Center
Fri 07:38:34 PM 38.8575 -90.7742 88° East 418 481 39,000  Level Kansas City Center
Fri 07:39:36 PM 38.8614 -90.6189 88° East 414 476 39,000  Level Kansas City Center
Fri 07:40:38 PM 38.8647 -90.4708 88° East 414 476 39,000  Level Kansas City Center
Fri 07:41:40 PM 38.8600 -90.3217 92° East 417 480 39,000  Level Kansas City Center
Fri 07:42:42 PM 38.8564 -90.1742 92° East 414 476 39,000  Level Kansas City Center
Fri 07:43:44 PM 38.8558 -90.0247 90° East 416 479 39,000  Level Kansas City Center
Fri 07:44:46 PM 38.8544 -89.8667 91° East 441 507 39,000  Level Kansas City Center
Fri 07:45:48 PM 38.8528 -89.7153 91° East 429 494 39,000  Level Kansas City Center
Fri 07:46:50 PM 38.8506 -89.5367 91° East 426 490 39,000  Level Kansas City Center
Fri 07:47:52 PM 38.8467 -89.3711 92° East 429 494 39,000  Level Kansas City Center
Fri 07:48:54 PM 38.8428 -89.2206 92° East 424 488 39,000  Level Kansas City Center
Fri 07:49:56 PM 38.8258 -89.0753 98° East 413 475 39,000  Level Kansas City Center
Fri 07:50:58 PM 38.7844 -88.9475 113° Southeast 410 472 39,000  Level Kansas City Center
Fri 07:52:00 PM 38.7400 -88.8133 113° Southeast 409 471 39,000  Level Kansas City Center
Fri 07:53:02 PM 38.6936 -88.6772 114° Southeast 416 479 39,000  Level Kansas City Center
Fri 07:54:04 PM 38.6419 -88.5292 114° Southeast 415 478 39,000  Level Kansas City Center
Fri 07:55:07 PM 38.5931 -88.3925 115° Southeast 420 483 39,000  Level Kansas City Center
Fri 07:56:09 PM 38.5339 -88.2286 115° Southeast 422 486 39,000  Level Kansas City Center
Fri 07:57:11 PM 38.4844 -88.0919 115° Southeast 422 486 39,000  Level Kansas City Center
Fri 07:58:13 PM 38.4325 -87.9572 116° Southeast 422 486 39,000  Level Kansas City Center
Fri 07:59:15 PM 38.3800 -87.8189 116° Southeast 430 495 39,000  Level Kansas City Center
Fri 08:00:17 PM 38.3306 -87.6825 115° Southeast 426 490 39,000  Level Kansas City Center
Fri 08:01:20 PM 38.3239 -87.5339 93° East 414 476 39,000  Level Kansas City Center
Fri 08:02:49 PM 38.3306 -87.2975 88° East 417 480 39,000  Level Indianapolis Center
Fri 08:03:51 PM 38.3331 -87.1581 89° East 418 481 39,000  Level Indianapolis Center
Fri 08:04:53 PM 38.3136 -87.0086 99° East 427 491 39,000  Level Indianapolis Center
Fri 08:05:54 PM 38.3144 -86.8328 90° East 427 491 39,000  Level Indianapolis Center
Fri 08:06:56 PM 38.3172 -86.6861 89° East 417 480 39,000  Level Indianapolis Center
Fri 08:07:58 PM 38.3214 -86.5414 88° East 411 473 39,000  Level Indianapolis Center
Fri 08:09:00 PM 38.3264 -86.3964 87° East 409 471 39,000  Level Indianapolis Center
Fri 08:10:02 PM 38.3294 -86.2514 88° East 409 471 39,000  Level Indianapolis Center
Fri 08:11:04 PM 38.3331 -86.1061 88° East 409 471 39,000  Level Indianapolis Center
Fri 08:12:06 PM 38.3367 -85.9603 88° East 411 473 39,000  Level Indianapolis Center
Fri 08:13:07 PM 38.3406 -85.7881 88° East 406 467 39,000  Level Indianapolis Center
Fri 08:14:09 PM 38.3444 -85.6447 88° East 406 467 39,000  Level Indianapolis Center
Fri 08:15:11 PM 38.3464 -85.4981 89° East 411 473 39,000  Level Indianapolis Center
Fri 08:16:13 PM 38.3497 -85.3522 88° East 411 473 39,000  Level Indianapolis Center
Fri 08:17:14 PM 38.3531 -85.1975 88° East 412 474 39,000  Level Indianapolis Center
Fri 08:18:16 PM 38.3539 -85.0517 90° East 412 474 39,000  Level Indianapolis Center
Fri 08:19:18 PM 38.3553 -84.9056 89° East 412 474 39,000  Level Indianapolis Center
Fri 08:20:20 PM 38.3567 -84.7606 89° East 410 472 39,000  Level Indianapolis Center
Fri 08:21:22 PM 38.3586 -84.5917 89° East 412 474 39,000  Level Indianapolis Center
Fri 08:22:23 PM 38.3589 -84.4464 90° East 411 473 39,000  Level Indianapolis Center
Fri 08:23:25 PM 38.3586 -84.2986 90° East 416 479 39,000 -48 Level Indianapolis Center
Fri 08:24:27 PM 38.3600 -84.1497 89° East 419 482 38,900  Descending Indianapolis Center
Fri 08:25:29 PM 38.3622 -84.0014 89° East 419 482 39,000 48 Climbing Indianapolis Center
Fri 08:26:31 PM 38.3608 -83.8558 91° East 413 475 39,000  Level Indianapolis Center
Fri 08:27:32 PM 38.3619 -83.6869 89° East 411 473 39,000  Level Indianapolis Center
Fri 08:28:34 PM 38.3631 -83.5464 89° East 401 461 39,000  Level Indianapolis Center
Fri 08:29:36 PM 38.3636 -83.4078 90° East 393 452 39,000  Level Indianapolis Center
Fri 08:30:38 PM 38.3633 -83.2664 90° East 398 458 39,000  Level Indianapolis Center
Fri 08:31:39 PM 38.3631 -83.1231 90° East 404 465 39,000  Level Indianapolis Center
Fri 08:32:41 PM 38.3625 -82.9775 90° East 410 472 39,000 -242 Level Indianapolis Center
Fri 08:33:43 PM 38.3617 -82.8319 90° East 410 472 38,500 -927 Descending Indianapolis Center
Fri 08:34:44 PM 38.3603 -82.6672 91° East 401 461 37,100 -1,220 Descending Indianapolis Center
Fri 08:35:46 PM 38.3592 -82.5233 91° East 404 465 36,000 -1,016 Descending Indianapolis Center
Fri 08:36:48 PM 38.3578 -82.3806 91° East 406 467 35,000 -484 Descending Indianapolis Center
Fri 08:37:50 PM 38.3561 -82.2347 91° East 411 473 35,000  Level Indianapolis Center
Fri 08:38:51 PM 38.3556 -82.0914 90° East 409 471 35,000  Level Indianapolis Center
Fri 08:39:53 PM 38.3533 -81.9458 91° East 412 474 35,000 -145 Level Indianapolis Center
Fri 08:40:55 PM 38.3519 -81.7997 91° East 416 479 34,700 -780 Descending Indianapolis Center
Fri 08:41:56 PM 38.3467 -81.6247 92° East 417 480 33,400 -829 Descending Indianapolis Center
Fri 08:42:58 PM 38.3403 -81.4789 93° East 419 482 33,000 -194 Descending Indianapolis Center
Fri 08:44:00 PM 38.3344 -81.3289 93° East 427 491 33,000  Level Indianapolis Center
Fri 08:45:01 PM 38.3292 -81.1814 93° East 421 484 33,000  Level Indianapolis Center
Fri 08:46:03 PM 38.3244 -81.0325 92° East 423 487 33,000  Level Indianapolis Center
Fri 08:47:05 PM 38.3183 -80.8850 93° East 422 486 33,000  Level Indianapolis Center
Fri 08:48:06 PM 38.3128 -80.7058 92° East 426 490 33,000  Level Indianapolis Center
Fri 08:49:08 PM 38.3206 -80.5569 86° East 421 484 33,000  Level Indianapolis Center
Fri 08:50:10 PM 38.3478 -80.4119 76° East 420 483 33,000  Level Indianapolis Center
Fri 08:51:11 PM 38.3744 -80.2692 77° East 422 486 33,000  Level Indianapolis Center
Fri 08:52:13 PM 38.4006 -80.1267 77° East 424 488 33,000  Level Indianapolis Center
Fri 08:53:14 PM 38.4292 -79.9567 78° East 421 484 33,000 -488 Level Indianapolis Center
Fri 08:54:16 PM 38.4544 -79.8156 77° East 420 483 32,000 -2,032 Descending Indianapolis Center
Fri 08:55:18 PM 38.4811 -79.6789 76° East 426 490 28,800 -2,878 Descending Washington Center
Fri 08:56:19 PM 38.5092 -79.5292 76° East 426 490 26,100 -2,622 Descending Washington Center
Fri 08:57:17 PM 38.5347 -79.3792 78° East 426 490 23,600 -1,881 Descending Washington Center
Fri 08:58:17 PM 38.5581 -79.2317 79° East 426 490 22,400 -1,289 Descending Washington Center
Fri 08:59:18 PM 38.5833 -79.0869 77° East 426 490 21,000 -1,664 Descending Washington Center
Fri 09:00:16 PM 38.6058 -78.9497 78° East 418 481 19,100 -2,017 Descending Washington Center
Fri 09:01:17 PM 38.6283 -78.8153 78° East 395 455 17,000 -1,983 Descending Washington Center
Fri 09:02:17 PM 38.6589 -78.6889 73° East 380 437 15,100 -2,017 Descending Washington Center
Fri 09:03:16 PM 38.6869 -78.5653 74° East 367 422 13,000 -1,600 Descending Washington Center
Fri 09:04:17 PM 38.7147 -78.4467 73° East 353 406 11,900 -984 Descending Washington Center
Fri 09:05:18 PM 38.7525 -78.3494 63° Northeast 326 375 11,000 -1,109 Descending Washington Center
Fri 09:06:16 PM 38.8086 -78.2717 47° Northeast 299 344 9,700 -1,119 Descending Washington Center
Fri 09:07:16 PM 38.8581 -78.1936 51° Northeast 289 333 8,800 -1,082 Descending Washington Center
Fri 09:08:18 PM 38.8811 -78.0983 73° East 278 320 7,500 -1,131 Descending Washington Center
Fri 09:09:18 PM 38.9058 -78.0058 71° East 272 313 6,500 -763 Descending Washington Center
Fri 09:10:16 PM 38.9264 -77.9158 74° East 265 305 6,000 -248 Descending Washington Center
Fri 09:11:19 PM 38.9511 -77.8258 71° East 264 304 6,000  Level Washington Center
Fri 09:12:16 PM 38.9614 -77.7219 83° East 264 304 6,000  Level Washington Center
Fri 09:13:45 PM 38.9833 -77.6000 77° East 248 285 6,000 -440 Level Potomac TRACON
Fri 09:14:46 PM 39.0500 -77.5667 21° North 224 258 4,900 -1,240 Descending Potomac TRACON
Fri 09:15:46 PM 39.1000 -77.5667 360° North 239 275 3,500 -1,400 Descending Potomac TRACON

Login

Don't have an account? Register now (free) for customized features, flight alerts, and more!